sensor_id;sensor_type;location;lat;lon;timestamp;temperature;humidity
37594;DHT22;23441;50.856;6.076;2023-04-01T00:02:19;8.80;99.90
37594;DHT22;23441;50.856;6.076;2023-04-01T00:04:44;8.80;99.90
37594;DHT22;23441;50.856;6.076;2023-04-01T00:07:11;8.80;99.90
37594;DHT22;23441;50.856;6.076;2023-04-01T00:09:37;8.80;99.90
37594;DHT22;23441;50.856;6.076;2023-04-01T00:12:03;8.70;99.90
37594;DHT22;23441;50.856;6.076;2023-04-01T00:14:29;8.70;99.90
37594;DHT22;23441;50.856;6.076;2023-04-01T00:16:55;8.80;99.90
37594;DHT22;23441;50.856;6.076;2023-04-01T00:19:20;8.80;99.90
37594;DHT22;23441;50.856;6.076;2023-04-01T00:21:46;8.80;99.90
37594;DHT22;23441;50.856;6.076;2023-04-01T00:24:11;8.80;99.90
37594;DHT22;23441;50.856;6.076;2023-04-01T00:26:37;8.80;99.90
37594;DHT22;23441;50.856;6.076;2023-04-01T00:29:02;8.70;99.90
37594;DHT22;23441;50.856;6.076;2023-04-01T00:31:28;8.70;99.90
37594;DHT22;23441;50.856;6.076;2023-04-01T00:33:55;8.70;99.90
37594;DHT22;23441;50.856;6.076;2023-04-01T00:36:21;8.70;99.90
37594;DHT22;23441;50.856;6.076;2023-04-01T00:38:49;8.70;99.90
37594;DHT22;23441;50.856;6.076;2023-04-01T00:41:15;8.70;99.90
37594;DHT22;23441;50.856;6.076;2023-04-01T00:43:43;8.80;99.90
37594;DHT22;23441;50.856;6.076;2023-04-01T00:46:10;8.70;99.90
37594;DHT22;23441;50.856;6.076;2023-04-01T00:48:43;8.70;99.90
37594;DHT22;23441;50.856;6.076;2023-04-01T00:51:16;8.70;99.90
37594;DHT22;23441;50.856;6.076;2023-04-01T00:53:45;8.70;99.90
37594;DHT22;23441;50.856;6.076;2023-04-01T00:56:19;8.70;99.90
37594;DHT22;23441;50.856;6.076;2023-04-01T00:58:50;8.70;99.90
37594;DHT22;23441;50.856;6.076;2023-04-01T01:01:17;8.70;99.90
37594;DHT22;23441;50.856;6.076;2023-04-01T01:03:42;8.70;99.90
37594;DHT22;23441;50.856;6.076;2023-04-01T01:25:32;8.70;99.90
37594;DHT22;23441;50.856;6.076;2023-04-01T01:31:20;8.70;99.90
37594;DHT22;23441;50.856;6.076;2023-04-01T01:33:59;8.60;99.90
37594;DHT22;23441;50.856;6.076;2023-04-01T01:36:32;8.60;99.90
37594;DHT22;23441;50.856;6.076;2023-04-01T01:39:03;8.60;99.90
37594;DHT22;23441;50.856;6.076;2023-04-01T01:41:31;8.70;99.90
37594;DHT22;23441;50.856;6.076;2023-04-01T01:43:59;8.60;99.90
37594;DHT22;23441;50.856;6.076;2023-04-01T01:46:27;8.60;99.90
37594;DHT22;23441;50.856;6.076;2023-04-01T01:48:55;8.60;99.90
37594;DHT22;23441;50.856;6.076;2023-04-01T01:51:23;8.60;99.90
37594;DHT22;23441;50.856;6.076;2023-04-01T01:53:49;8.60;99.90
37594;DHT22;23441;50.856;6.076;2023-04-01T01:56:18;8.60;99.90
37594;DHT22;23441;50.856;6.076;2023-04-01T01:58:52;8.60;99.90
37594;DHT22;23441;50.856;6.076;2023-04-01T02:01:25;8.60;99.90
37594;DHT22;23441;50.856;6.076;2023-04-01T02:03:52;8.60;99.90
37594;DHT22;23441;50.856;6.076;2023-04-01T02:06:21;8.60;99.90
37594;DHT22;23441;50.856;6.076;2023-04-01T02:08:57;8.50;99.90
37594;DHT22;23441;50.856;6.076;2023-04-01T02:11:43;8.50;99.90
37594;DHT22;23441;50.856;6.076;2023-04-01T02:14:14;8.50;99.90
37594;DHT22;23441;50.856;6.076;2023-04-01T02:19:18;8.60;99.90
37594;DHT22;23441;50.856;6.076;2023-04-01T02:21:51;8.60;99.90
37594;DHT22;23441;50.856;6.076;2023-04-01T02:24:19;8.60;99.90
37594;DHT22;23441;50.856;6.076;2023-04-01T02:26:48;8.60;99.90
37594;DHT22;23441;50.856;6.076;2023-04-01T02:29:17;8.60;99.90
37594;DHT22;23441;50.856;6.076;2023-04-01T02:31:43;8.60;99.90
37594;DHT22;23441;50.856;6.076;2023-04-01T02:34:09;8.60;99.90
37594;DHT22;23441;50.856;6.076;2023-04-01T02:36:36;8.60;99.90
37594;DHT22;23441;50.856;6.076;2023-04-01T02:39:02;8.60;99.90
37594;DHT22;23441;50.856;6.076;2023-04-01T02:41:29;8.60;99.90
37594;DHT22;23441;50.856;6.076;2023-04-01T02:43:55;8.60;99.90
37594;DHT22;23441;50.856;6.076;2023-04-01T02:46:22;8.60;99.90
37594;DHT22;23441;50.856;6.076;2023-04-01T02:48:48;8.60;99.90
37594;DHT22;23441;50.856;6.076;2023-04-01T02:51:13;8.60;99.90
37594;DHT22;23441;50.856;6.076;2023-04-01T02:53:39;8.60;99.90
37594;DHT22;23441;50.856;6.076;2023-04-01T02:56:05;8.60;99.90
37594;DHT22;23441;50.856;6.076;2023-04-01T02:58:31;8.60;99.90
37594;DHT22;23441;50.856;6.076;2023-04-01T03:00:56;8.60;99.90
37594;DHT22;23441;50.856;6.076;2023-04-01T03:03:22;8.60;99.90
37594;DHT22;23441;50.856;6.076;2023-04-01T03:05:48;8.60;99.90
37594;DHT22;23441;50.856;6.076;2023-04-01T03:08:14;8.60;99.90
37594;DHT22;23441;50.856;6.076;2023-04-01T03:10:39;8.60;99.90
37594;DHT22;23441;50.856;6.076;2023-04-01T03:13:05;8.60;99.90
37594;DHT22;23441;50.856;6.076;2023-04-01T03:15:31;8.60;99.90
37594;DHT22;23441;50.856;6.076;2023-04-01T03:17:57;8.60;99.90
37594;DHT22;23441;50.856;6.076;2023-04-01T03:20:23;8.60;99.90
37594;DHT22;23441;50.856;6.076;2023-04-01T03:22:48;8.60;99.90
37594;DHT22;23441;50.856;6.076;2023-04-01T03:25:14;8.60;99.90
37594;DHT22;23441;50.856;6.076;2023-04-01T03:27:40;8.60;99.90
37594;DHT22;23441;50.856;6.076;2023-04-01T03:30:06;8.60;99.90
37594;DHT22;23441;50.856;6.076;2023-04-01T03:32:32;8.60;99.90
37594;DHT22;23441;50.856;6.076;2023-04-01T03:34:58;8.60;99.90
37594;DHT22;23441;50.856;6.076;2023-04-01T03:37:24;8.60;99.90
37594;DHT22;23441;50.856;6.076;2023-04-01T03:39:50;8.60;99.90
37594;DHT22;23441;50.856;6.076;2023-04-01T03:42:15;8.60;99.90
37594;DHT22;23441;50.856;6.076;2023-04-01T03:44:41;8.60;99.90
37594;DHT22;23441;50.856;6.076;2023-04-01T03:47:07;8.60;99.90
37594;DHT22;23441;50.856;6.076;2023-04-01T03:49:34;8.60;99.90
37594;DHT22;23441;50.856;6.076;2023-04-01T03:52:00;8.50;99.90
37594;DHT22;23441;50.856;6.076;2023-04-01T03:54:25;8.50;99.90
37594;DHT22;23441;50.856;6.076;2023-04-01T03:56:51;8.60;99.90
37594;DHT22;23441;50.856;6.076;2023-04-01T03:59:17;8.60;99.90
37594;DHT22;23441;50.856;6.076;2023-04-01T04:01:42;8.50;99.90
37594;DHT22;23441;50.856;6.076;2023-04-01T04:04:11;8.60;99.90
37594;DHT22;23441;50.856;6.076;2023-04-01T04:06:38;8.60;99.90
37594;DHT22;23441;50.856;6.076;2023-04-01T04:09:04;8.60;99.90
37594;DHT22;23441;50.856;6.076;2023-04-01T04:11:31;8.60;99.90
37594;DHT22;23441;50.856;6.076;2023-04-01T04:13:58;8.60;99.90
37594;DHT22;23441;50.856;6.076;2023-04-01T04:16:24;8.60;99.90
37594;DHT22;23441;50.856;6.076;2023-04-01T04:18:49;8.60;99.90
37594;DHT22;23441;50.856;6.076;2023-04-01T04:21:16;8.60;99.90
37594;DHT22;23441;50.856;6.076;2023-04-01T04:23:42;8.60;99.90
37594;DHT22;23441;50.856;6.076;2023-04-01T04:26:12;8.60;99.90
37594;DHT22;23441;50.856;6.076;2023-04-01T04:28:38;8.60;99.90
37594;DHT22;23441;50.856;6.076;2023-04-01T04:31:04;8.60;99.90
37594;DHT22;23441;50.856;6.076;2023-04-01T04:33:30;8.60;99.90
37594;DHT22;23441;50.856;6.076;2023-04-01T04:35:57;8.60;99.90
37594;DHT22;23441;50.856;6.076;2023-04-01T04:38:23;8.60;99.90
37594;DHT22;23441;50.856;6.076;2023-04-01T04:40:49;8.60;99.90
37594;DHT22;23441;50.856;6.076;2023-04-01T04:43:16;8.60;99.90
37594;DHT22;23441;50.856;6.076;2023-04-01T04:45:42;8.60;99.90
37594;DHT22;23441;50.856;6.076;2023-04-01T04:48:13;8.60;99.90
37594;DHT22;23441;50.856;6.076;2023-04-01T04:50:44;8.60;99.90
37594;DHT22;23441;50.856;6.076;2023-04-01T04:53:11;8.50;99.90
37594;DHT22;23441;50.856;6.076;2023-04-01T04:55:37;8.60;99.90
37594;DHT22;23441;50.856;6.076;2023-04-01T04:58:02;8.60;99.90
37594;DHT22;23441;50.856;6.076;2023-04-01T05:00:28;8.60;99.90
37594;DHT22;23441;50.856;6.076;2023-04-01T05:02:53;8.50;99.90
37594;DHT22;23441;50.856;6.076;2023-04-01T05:05:19;8.50;99.90
37594;DHT22;23441;50.856;6.076;2023-04-01T05:07:45;8.50;99.90
37594;DHT22;23441;50.856;6.076;2023-04-01T05:10:11;8.60;99.90
37594;DHT22;23441;50.856;6.076;2023-04-01T05:12:36;8.60;99.90
37594;DHT22;23441;50.856;6.076;2023-04-01T05:15:05;8.60;99.90
37594;DHT22;23441;50.856;6.076;2023-04-01T05:17:31;8.60;99.90
37594;DHT22;23441;50.856;6.076;2023-04-01T05:19:57;8.60;99.90
37594;DHT22;23441;50.856;6.076;2023-04-01T05:22:23;8.60;99.90
37594;DHT22;23441;50.856;6.076;2023-04-01T05:24:49;8.60;99.90
37594;DHT22;23441;50.856;6.076;2023-04-01T05:27:15;8.60;99.90
37594;DHT22;23441;50.856;6.076;2023-04-01T05:29:40;8.60;99.90
37594;DHT22;23441;50.856;6.076;2023-04-01T05:32:06;8.60;99.90
37594;DHT22;23441;50.856;6.076;2023-04-01T05:34:32;8.60;99.90
37594;DHT22;23441;50.856;6.076;2023-04-01T05:36:57;8.60;99.90
37594;DHT22;23441;50.856;6.076;2023-04-01T05:39:23;8.60;99.90
37594;DHT22;23441;50.856;6.076;2023-04-01T05:41:49;8.60;99.90
37594;DHT22;23441;50.856;6.076;2023-04-01T05:44:15;8.60;99.90
37594;DHT22;23441;50.856;6.076;2023-04-01T05:46:41;8.60;99.90
37594;DHT22;23441;50.856;6.076;2023-04-01T05:49:06;8.60;99.90
37594;DHT22;23441;50.856;6.076;2023-04-01T05:51:32;8.60;99.90
37594;DHT22;23441;50.856;6.076;2023-04-01T05:53:57;8.60;99.90
37594;DHT22;23441;50.856;6.076;2023-04-01T05:56:23;8.60;99.90
37594;DHT22;23441;50.856;6.076;2023-04-01T05:58:51;8.50;99.90
37594;DHT22;23441;50.856;6.076;2023-04-01T06:01:18;8.50;99.90
37594;DHT22;23441;50.856;6.076;2023-04-01T06:03:44;8.50;99.90
37594;DHT22;23441;50.856;6.076;2023-04-01T06:06:15;8.50;99.90
37594;DHT22;23441;50.856;6.076;2023-04-01T06:08:42;8.50;99.90
37594;DHT22;23441;50.856;6.076;2023-04-01T06:11:25;8.50;99.90
37594;DHT22;23441;50.856;6.076;2023-04-01T06:17:01;8.60;99.90
37594;DHT22;23441;50.856;6.076;2023-04-01T06:44:23;8.60;99.90
37594;DHT22;23441;50.856;6.076;2023-04-01T06:47:03;8.60;99.90
37594;DHT22;23441;50.856;6.076;2023-04-01T06:50:05;8.60;99.90
37594;DHT22;23441;50.856;6.076;2023-04-01T06:55:26;8.60;99.90
37594;DHT22;23441;50.856;6.076;2023-04-01T06:57:55;8.60;99.90
37594;DHT22;23441;50.856;6.076;2023-04-01T07:00:32;8.60;99.90
37594;DHT22;23441;50.856;6.076;2023-04-01T07:05:47;8.70;99.90
37594;DHT22;23441;50.856;6.076;2023-04-01T07:08:17;8.70;99.90
37594;DHT22;23441;50.856;6.076;2023-04-01T07:13:31;8.70;99.90
37594;DHT22;23441;50.856;6.076;2023-04-01T07:16:14;8.70;99.90
37594;DHT22;23441;50.856;6.076;2023-04-01T07:19:00;8.70;99.90
37594;DHT22;23441;50.856;6.076;2023-04-01T07:21:34;8.70;99.90
37594;DHT22;23441;50.856;6.076;2023-04-01T07:24:05;8.70;99.90
37594;DHT22;23441;50.856;6.076;2023-04-01T07:26:32;8.60;99.90
37594;DHT22;23441;50.856;6.076;2023-04-01T07:28:58;8.70;99.90
37594;DHT22;23441;50.856;6.076;2023-04-01T07:31:45;8.70;99.90
37594;DHT22;23441;50.856;6.076;2023-04-01T07:37:06;8.70;99.90
37594;DHT22;23441;50.856;6.076;2023-04-01T07:39:42;8.70;99.90
37594;DHT22;23441;50.856;6.076;2023-04-01T07:56:14;8.70;99.90
37594;DHT22;23441;50.856;6.076;2023-04-01T08:01:40;8.70;99.90
37594;DHT22;23441;50.856;6.076;2023-04-01T08:07:07;8.70;99.90
37594;DHT22;23441;50.856;6.076;2023-04-01T08:15:34;8.80;99.90
37594;DHT22;23441;50.856;6.076;2023-04-01T08:20:50;8.80;99.90
37594;DHT22;23441;50.856;6.076;2023-04-01T08:25:54;8.80;99.90
37594;DHT22;23441;50.856;6.076;2023-04-01T08:28:46;8.80;99.90
37594;DHT22;23441;50.856;6.076;2023-04-01T08:34:12;8.90;99.90
37594;DHT22;23441;50.856;6.076;2023-04-01T08:36:43;9.00;99.90
37594;DHT22;23441;50.856;6.076;2023-04-01T08:39:31;9.00;99.90
37594;DHT22;23441;50.856;6.076;2023-04-01T08:42:15;9.00;99.90
37594;DHT22;23441;50.856;6.076;2023-04-01T08:45:14;8.90;99.90
37594;DHT22;23441;50.856;6.076;2023-04-01T08:50:46;8.90;99.90
37594;DHT22;23441;50.856;6.076;2023-04-01T09:10:11;8.90;99.90
37594;DHT22;23441;50.856;6.076;2023-04-01T09:19:11;9.00;99.90
37594;DHT22;23441;50.856;6.076;2023-04-01T09:21:46;9.10;99.90
37594;DHT22;23441;50.856;6.076;2023-04-01T09:40:22;9.10;99.90
37594;DHT22;23441;50.856;6.076;2023-04-01T09:43:33;9.10;99.90
37594;DHT22;23441;50.856;6.076;2023-04-01T10:16:09;9.30;99.90
37594;DHT22;23441;50.856;6.076;2023-04-01T10:41:47;9.30;99.90
37594;DHT22;23441;50.856;6.076;2023-04-01T10:44:48;9.40;99.90
37594;DHT22;23441;50.856;6.076;2023-04-01T10:50:50;9.40;99.90
37594;DHT22;23441;50.856;6.076;2023-04-01T10:59:20;9.50;99.90
37594;DHT22;23441;50.856;6.076;2023-04-01T11:10:43;9.40;99.90
37594;DHT22;23441;50.856;6.076;2023-04-01T11:19:22;9.40;99.90
37594;DHT22;23441;50.856;6.076;2023-04-01T11:22:19;9.40;99.90
37594;DHT22;23441;50.856;6.076;2023-04-01T11:33:47;9.60;99.90
37594;DHT22;23441;50.856;6.076;2023-04-01T11:36:26;9.70;99.90
37594;DHT22;23441;50.856;6.076;2023-04-01T11:39:20;9.70;99.90
37594;DHT22;23441;50.856;6.076;2023-04-01T11:42:01;9.70;99.90
37594;DHT22;23441;50.856;6.076;2023-04-01T11:44:29;9.70;99.90
37594;DHT22;23441;50.856;6.076;2023-04-01T11:50:17;9.70;99.90
37594;DHT22;23441;50.856;6.076;2023-04-01T11:53:05;9.70;99.90
37594;DHT22;23441;50.856;6.076;2023-04-01T11:56:11;9.70;99.90
37594;DHT22;23441;50.856;6.076;2023-04-01T12:04:49;9.70;99.90
37594;DHT22;23441;50.856;6.076;2023-04-01T12:10:10;9.70;99.90
37594;DHT22;23441;50.856;6.076;2023-04-01T12:18:17;9.90;99.90
37594;DHT22;23441;50.856;6.076;2023-04-01T12:20:57;10.00;99.90
37594;DHT22;23441;50.856;6.076;2023-04-01T12:23:42;10.00;99.90
37594;DHT22;23441;50.856;6.076;2023-04-01T13:02:27;10.00;99.90
37594;DHT22;23441;50.856;6.076;2023-04-01T13:08:33;10.10;99.90
37594;DHT22;23441;50.856;6.076;2023-04-01T13:19:18;9.80;99.90
37594;DHT22;23441;50.856;6.076;2023-04-01T13:22:23;9.90;99.90
37594;DHT22;23441;50.856;6.076;2023-04-01T13:25:06;9.90;99.90
37594;DHT22;23441;50.856;6.076;2023-04-01T13:27:45;9.90;99.90
37594;DHT22;23441;50.856;6.076;2023-04-01T13:30:27;10.00;99.90
37594;DHT22;23441;50.856;6.076;2023-04-01T13:36:22;10.10;99.90
37594;DHT22;23441;50.856;6.076;2023-04-01T13:39:19;10.10;99.90
37594;DHT22;23441;50.856;6.076;2023-04-01T13:42:12;10.10;99.90
37594;DHT22;23441;50.856;6.076;2023-04-01T13:53:04;10.20;99.90
37594;DHT22;23441;50.856;6.076;2023-04-01T13:55:53;10.10;99.90
37594;DHT22;23441;50.856;6.076;2023-04-01T13:58:29;10.10;99.90
37594;DHT22;23441;50.856;6.076;2023-04-01T14:01:21;10.10;99.90
37594;DHT22;23441;50.856;6.076;2023-04-01T14:09:52;10.00;99.90
37594;DHT22;23441;50.856;6.076;2023-04-01T14:15:19;10.10;99.90
37594;DHT22;23441;50.856;6.076;2023-04-01T14:20:51;10.10;99.90
37594;DHT22;23441;50.856;6.076;2023-04-01T14:23:37;10.10;99.90
37594;DHT22;23441;50.856;6.076;2023-04-01T14:26:35;10.10;99.90
37594;DHT22;23441;50.856;6.076;2023-04-01T14:37:53;10.40;99.90
37594;DHT22;23441;50.856;6.076;2023-04-01T14:45:55;10.20;99.90
37594;DHT22;23441;50.856;6.076;2023-04-01T14:48:37;10.20;99.90
37594;DHT22;23441;50.856;6.076;2023-04-01T14:53:38;10.20;99.90
37594;DHT22;23441;50.856;6.076;2023-04-01T14:56:07;10.10;99.90
37594;DHT22;23441;50.856;6.076;2023-04-01T14:58:49;10.20;99.90
37594;DHT22;23441;50.856;6.076;2023-04-01T15:10:42;10.30;99.90
37594;DHT22;23441;50.856;6.076;2023-04-01T15:31:42;9.90;99.90
37594;DHT22;23441;50.856;6.076;2023-04-01T15:37:33;9.80;99.90
37594;DHT22;23441;50.856;6.076;2023-04-01T15:42:58;9.80;99.90
37594;DHT22;23441;50.856;6.076;2023-04-01T15:48:39;9.80;99.90
37594;DHT22;23441;50.856;6.076;2023-04-01T15:56:49;9.90;99.90
37594;DHT22;23441;50.856;6.076;2023-04-01T16:04:47;9.70;99.90
37594;DHT22;23441;50.856;6.076;2023-04-01T16:15:42;9.50;99.90
37594;DHT22;23441;50.856;6.076;2023-04-01T16:21:00;9.40;99.90
37594;DHT22;23441;50.856;6.076;2023-04-01T16:23:40;9.30;99.90
37594;DHT22;23441;50.856;6.076;2023-04-01T16:26:22;9.30;99.90
37594;DHT22;23441;50.856;6.076;2023-04-01T16:29:08;9.30;99.90
37594;DHT22;23441;50.856;6.076;2023-04-01T16:34:25;9.40;99.90
37594;DHT22;23441;50.856;6.076;2023-04-01T16:42:52;9.40;99.90
37594;DHT22;23441;50.856;6.076;2023-04-01T16:45:59;9.40;99.90
37594;DHT22;23441;50.856;6.076;2023-04-01T16:51:18;9.50;99.90
37594;DHT22;23441;50.856;6.076;2023-04-01T16:54:06;9.50;99.90
37594;DHT22;23441;50.856;6.076;2023-04-01T16:56:54;9.50;99.90
37594;DHT22;23441;50.856;6.076;2023-04-01T16:59:35;9.50;99.90
37594;DHT22;23441;50.856;6.076;2023-04-01T17:02:12;9.40;99.90
37594;DHT22;23441;50.856;6.076;2023-04-01T17:04:46;9.30;99.90
37594;DHT22;23441;50.856;6.076;2023-04-01T17:07:24;9.30;99.90
37594;DHT22;23441;50.856;6.076;2023-04-01T17:13:01;9.20;99.90
37594;DHT22;23441;50.856;6.076;2023-04-01T17:16:00;9.20;99.90
37594;DHT22;23441;50.856;6.076;2023-04-01T17:21:25;9.20;99.90
37594;DHT22;23441;50.856;6.076;2023-04-01T17:24:21;9.20;99.90
37594;DHT22;23441;50.856;6.076;2023-04-01T17:26:46;9.10;99.90
37594;DHT22;23441;50.856;6.076;2023-04-01T17:34:17;9.00;99.90
37594;DHT22;23441;50.856;6.076;2023-04-01T17:37:05;9.00;99.90
37594;DHT22;23441;50.856;6.076;2023-04-01T17:42:14;9.00;99.90
37594;DHT22;23441;50.856;6.076;2023-04-01T17:44:45;8.90;99.90
37594;DHT22;23441;50.856;6.076;2023-04-01T17:55:52;8.80;99.90
37594;DHT22;23441;50.856;6.076;2023-04-01T17:58:34;8.80;99.90
37594;DHT22;23441;50.856;6.076;2023-04-01T18:01:18;8.80;99.90
37594;DHT22;23441;50.856;6.076;2023-04-01T18:14:47;8.60;99.90
37594;DHT22;23441;50.856;6.076;2023-04-01T18:17:25;8.60;99.90
37594;DHT22;23441;50.856;6.076;2023-04-01T18:22:53;8.60;99.90
37594;DHT22;23441;50.856;6.076;2023-04-01T18:25:28;8.70;99.90
37594;DHT22;23441;50.856;6.076;2023-04-01T18:30:44;8.60;99.90
37594;DHT22;23441;50.856;6.076;2023-04-01T18:33:29;8.60;99.90
37594;DHT22;23441;50.856;6.076;2023-04-01T18:44:43;8.70;99.90
37594;DHT22;23441;50.856;6.076;2023-04-01T18:52:45;8.60;99.90
37594;DHT22;23441;50.856;6.076;2023-04-01T18:58:19;8.50;99.90
37594;DHT22;23441;50.856;6.076;2023-04-01T19:01:04;8.50;99.90
37594;DHT22;23441;50.856;6.076;2023-04-01T19:09:22;8.50;99.90
37594;DHT22;23441;50.856;6.076;2023-04-01T19:12:33;8.50;99.90
37594;DHT22;23441;50.856;6.076;2023-04-01T19:20:32;8.50;99.90
37594;DHT22;23441;50.856;6.076;2023-04-01T19:25:58;8.40;99.90
37594;DHT22;23441;50.856;6.076;2023-04-01T19:28:52;8.40;99.90
37594;DHT22;23441;50.856;6.076;2023-04-01T19:34:10;8.40;99.90
37594;DHT22;23441;50.856;6.076;2023-04-01T19:36:50;8.30;99.90
37594;DHT22;23441;50.856;6.076;2023-04-01T19:45:31;8.30;99.90
37594;DHT22;23441;50.856;6.076;2023-04-01T19:50:40;8.30;99.90
37594;DHT22;23441;50.856;6.076;2023-04-01T19:53:39;8.30;99.90
37594;DHT22;23441;50.856;6.076;2023-04-01T19:56:18;8.40;99.90
37594;DHT22;23441;50.856;6.076;2023-04-01T20:02:25;8.30;99.90
37594;DHT22;23441;50.856;6.076;2023-04-01T20:04:52;8.30;99.90
37594;DHT22;23441;50.856;6.076;2023-04-01T20:10:20;8.30;99.90
37594;DHT22;23441;50.856;6.076;2023-04-01T20:15:37;8.30;99.90
37594;DHT22;23441;50.856;6.076;2023-04-01T20:21:02;8.40;99.90
37594;DHT22;23441;50.856;6.076;2023-04-01T20:26:11;8.40;99.90
37594;DHT22;23441;50.856;6.076;2023-04-01T20:31:36;8.40;99.90
37594;DHT22;23441;50.856;6.076;2023-04-01T20:34:32;8.40;99.90
37594;DHT22;23441;50.856;6.076;2023-04-01T20:37:15;8.40;99.90
37594;DHT22;23441;50.856;6.076;2023-04-01T20:45:20;8.50;99.90
37594;DHT22;23441;50.856;6.076;2023-04-01T20:51:16;8.40;99.90
37594;DHT22;23441;50.856;6.076;2023-04-01T20:54:05;8.40;99.90
37594;DHT22;23441;50.856;6.076;2023-04-01T21:05:50;8.50;99.90
37594;DHT22;23441;50.856;6.076;2023-04-01T21:37:00;8.80;99.90
37594;DHT22;23441;50.856;6.076;2023-04-01T21:50:33;8.80;99.90
37594;DHT22;23441;50.856;6.076;2023-04-01T21:56:11;8.70;99.90
37594;DHT22;23441;50.856;6.076;2023-04-01T22:07:00;8.70;99.90
37594;DHT22;23441;50.856;6.076;2023-04-01T22:09:37;8.70;99.90
37594;DHT22;23441;50.856;6.076;2023-04-01T22:12:09;8.70;99.90
37594;DHT22;23441;50.856;6.076;2023-04-01T22:17:43;8.60;99.90
37594;DHT22;23441;50.856;6.076;2023-04-01T22:23:29;8.50;99.90
37594;DHT22;23441;50.856;6.076;2023-04-01T22:26:09;8.50;99.90
37594;DHT22;23441;50.856;6.076;2023-04-01T22:29:06;8.50;99.90
37594;DHT22;23441;50.856;6.076;2023-04-01T22:34:33;8.40;99.90
37594;DHT22;23441;50.856;6.076;2023-04-01T22:37:09;8.40;99.90
37594;DHT22;23441;50.856;6.076;2023-04-01T22:53:08;8.20;99.90
37594;DHT22;23441;50.856;6.076;2023-04-01T22:55:42;8.20;99.90
37594;DHT22;23441;50.856;6.076;2023-04-01T22:58:17;8.20;99.90
37594;DHT22;23441;50.856;6.076;2023-04-01T23:00:56;8.20;99.90
37594;DHT22;23441;50.856;6.076;2023-04-01T23:03:35;8.10;99.90
37594;DHT22;23441;50.856;6.076;2023-04-01T23:06:04;8.20;99.90
37594;DHT22;23441;50.856;6.076;2023-04-01T23:11:07;8.30;99.90
37594;DHT22;23441;50.856;6.076;2023-04-01T23:13:41;8.10;99.90
37594;DHT22;23441;50.856;6.076;2023-04-01T23:16:09;8.10;99.90
37594;DHT22;23441;50.856;6.076;2023-04-01T23:18:55;8.00;99.90
37594;DHT22;23441;50.856;6.076;2023-04-01T23:22:04;7.90;99.90
37594;DHT22;23441;50.856;6.076;2023-04-01T23:25:04;7.80;99.90
37594;DHT22;23441;50.856;6.076;2023-04-01T23:27:48;7.80;99.90
37594;DHT22;23441;50.856;6.076;2023-04-01T23:33:22;7.70;99.90
37594;DHT22;23441;50.856;6.076;2023-04-01T23:36:10;7.80;99.90
37594;DHT22;23441;50.856;6.076;2023-04-01T23:38:37;7.70;99.90
37594;DHT22;23441;50.856;6.076;2023-04-01T23:41:05;7.60;99.90
37594;DHT22;23441;50.856;6.076;2023-04-01T23:43:36;7.60;99.90
37594;DHT22;23441;50.856;6.076;2023-04-01T23:46:03;7.60;99.90
37594;DHT22;23441;50.856;6.076;2023-04-01T23:48:38;7.60;99.90
37594;DHT22;23441;50.856;6.076;2023-04-01T23:51:17;7.60;99.90
37594;DHT22;23441;50.856;6.076;2023-04-01T23:53:47;7.60;99.90
37594;DHT22;23441;50.856;6.076;2023-04-01T23:56:16;7.60;99.90
